sensor_id;sensor_type;location;lat;lon;timestamp;pressure;altitude;pressure_sealevel;temperature;humidity
9225;BME280;4647;48.072;11.616;2023-03-13T00:02:20;94990.75;;;4.69;82.28
9225;BME280;4647;48.072;11.616;2023-03-13T00:04:52;94988.06;;;4.62;82.32
9225;BME280;4647;48.072;11.616;2023-03-13T00:07:20;94980.38;;;4.57;82.79
9225;BME280;4647;48.072;11.616;2023-03-13T00:09:48;94967.28;;;4.48;83.08
9225;BME280;4647;48.072;11.616;2023-03-13T00:12:17;94966.50;;;4.41;83.49
9225;BME280;4647;48.072;11.616;2023-03-13T00:14:45;94963.47;;;4.46;83.54
9225;BME280;4647;48.072;11.616;2023-03-13T00:17:14;94948.84;;;4.29;84.28
9225;BME280;4647;48.072;11.616;2023-03-13T00:19:43;94949.63;;;4.37;83.86
9225;BME280;4647;48.072;11.616;2023-03-13T00:22:14;94944.28;;;4.44;83.56
9225;BME280;4647;48.072;11.616;2023-03-13T00:24:44;94943.13;;;4.34;84.04
9225;BME280;4647;48.072;11.616;2023-03-13T00:27:12;94938.16;;;4.40;83.60
9225;BME280;4647;48.072;11.616;2023-03-13T00:29:41;94938.53;;;4.38;83.64
9225;BME280;4647;48.072;11.616;2023-03-13T00:32:10;94939.22;;;4.21;83.72
9225;BME280;4647;48.072;11.616;2023-03-13T00:34:38;94932.31;;;4.16;83.59
9225;BME280;4647;48.072;11.616;2023-03-13T00:37:06;94926.59;;;4.25;83.48
9225;BME280;4647;48.072;11.616;2023-03-13T00:39:37;94928.50;;;4.24;83.35
9225;BME280;4647;48.072;11.616;2023-03-13T00:42:06;94920.41;;;4.03;83.87
9225;BME280;4647;48.072;11.616;2023-03-13T00:44:34;94917.66;;;3.96;84.22
9225;BME280;4647;48.072;11.616;2023-03-13T00:47:03;94908.50;;;4.00;83.93
9225;BME280;4647;48.072;11.616;2023-03-13T00:49:32;94898.84;;;3.82;84.64
9225;BME280;4647;48.072;11.616;2023-03-13T00:52:01;94897.69;;;3.79;84.76
9225;BME280;4647;48.072;11.616;2023-03-13T00:54:29;94903.78;;;3.76;84.48
9225;BME280;4647;48.072;11.616;2023-03-13T00:57:00;94901.47;;;3.75;84.09
9225;BME280;4647;48.072;11.616;2023-03-13T00:59:29;94896.16;;;3.82;83.81
9225;BME280;4647;48.072;11.616;2023-03-13T01:01:57;94901.44;;;3.67;84.06
9225;BME280;4647;48.072;11.616;2023-03-13T01:04:25;94903.22;;;3.46;84.57
9225;BME280;4647;48.072;11.616;2023-03-13T01:06:54;94884.69;;;3.23;85.18
9225;BME280;4647;48.072;11.616;2023-03-13T01:09:22;94908.91;;;3.37;84.95
9225;BME280;4647;48.072;11.616;2023-03-13T01:11:51;94899.66;;;3.31;84.73
9225;BME280;4647;48.072;11.616;2023-03-13T01:14:22;94890.78;;;3.20;84.89
9225;BME280;4647;48.072;11.616;2023-03-13T01:16:50;94891.91;;;3.12;85.40
9225;BME280;4647;48.072;11.616;2023-03-13T01:19:19;94887.72;;;3.18;84.96
9225;BME280;4647;48.072;11.616;2023-03-13T01:21:47;94880.41;;;3.11;85.47
9225;BME280;4647;48.072;11.616;2023-03-13T01:24:16;94882.28;;;3.07;85.66
9225;BME280;4647;48.072;11.616;2023-03-13T01:26:45;94886.16;;;3.13;85.79
9225;BME280;4647;48.072;11.616;2023-03-13T01:29:13;94880.06;;;3.13;85.85
9225;BME280;4647;48.072;11.616;2023-03-13T01:31:44;94873.56;;;3.14;85.73
9225;BME280;4647;48.072;11.616;2023-03-13T01:34:12;94878.13;;;3.10;85.40
9225;BME280;4647;48.072;11.616;2023-03-13T01:36:41;94869.22;;;2.98;85.47
9225;BME280;4647;48.072;11.616;2023-03-13T01:39:11;94875.38;;;3.06;86.07
9225;BME280;4647;48.072;11.616;2023-03-13T01:41:39;94874.19;;;3.00;86.15
9225;BME280;4647;48.072;11.616;2023-03-13T01:44:19;94866.13;;;2.93;85.88
9225;BME280;4647;48.072;11.616;2023-03-13T01:46:51;94858.84;;;2.90;85.87
9225;BME280;4647;48.072;11.616;2023-03-13T01:49:21;94857.69;;;2.87;86.22
9225;BME280;4647;48.072;11.616;2023-03-13T01:51:53;94855.28;;;2.75;86.09
9225;BME280;4647;48.072;11.616;2023-03-13T01:54:24;94859.06;;;2.70;85.92
9225;BME280;4647;48.072;11.616;2023-03-13T01:56:57;94859.09;;;2.74;86.37
9225;BME280;4647;48.072;11.616;2023-03-13T01:59:29;94854.75;;;2.59;85.91
9225;BME280;4647;48.072;11.616;2023-03-13T02:02:03;94849.06;;;2.64;86.31
9225;BME280;4647;48.072;11.616;2023-03-13T02:04:35;94853.94;;;2.55;86.38
9225;BME280;4647;48.072;11.616;2023-03-13T02:07:09;94842.31;;;2.81;86.11
9225;BME280;4647;48.072;11.616;2023-03-13T02:09:40;94845.31;;;2.72;86.00
9225;BME280;4647;48.072;11.616;2023-03-13T02:12:11;94835.72;;;2.64;86.55
9225;BME280;4647;48.072;11.616;2023-03-13T02:14:44;94833.06;;;2.67;86.63
9225;BME280;4647;48.072;11.616;2023-03-13T02:17:16;94835.53;;;2.90;86.21
9225;BME280;4647;48.072;11.616;2023-03-13T02:19:46;94841.94;;;2.82;85.98
9225;BME280;4647;48.072;11.616;2023-03-13T02:22:21;94840.78;;;2.80;85.93
9225;BME280;4647;48.072;11.616;2023-03-13T02:24:55;94834.69;;;2.83;86.16
9225;BME280;4647;48.072;11.616;2023-03-13T02:27:28;94821.38;;;2.90;85.89
9225;BME280;4647;48.072;11.616;2023-03-13T02:29:57;94800.94;;;2.64;86.10
9225;BME280;4647;48.072;11.616;2023-03-13T02:32:27;94823.31;;;2.93;85.94
9225;BME280;4647;48.072;11.616;2023-03-13T02:35:00;94846.69;;;3.03;85.72
9225;BME280;4647;48.072;11.616;2023-03-13T02:37:30;94834.41;;;2.91;85.90
9225;BME280;4647;48.072;11.616;2023-03-13T02:40:03;94829.06;;;2.95;85.42
9225;BME280;4647;48.072;11.616;2023-03-13T02:42:37;94841.72;;;3.01;85.27
9225;BME280;4647;48.072;11.616;2023-03-13T02:45:08;94848.59;;;3.02;85.20
9225;BME280;4647;48.072;11.616;2023-03-13T02:47:36;94846.63;;;2.92;85.03
9225;BME280;4647;48.072;11.616;2023-03-13T02:50:05;94829.91;;;2.58;85.71
9225;BME280;4647;48.072;11.616;2023-03-13T02:52:36;94849.19;;;2.78;85.88
9225;BME280;4647;48.072;11.616;2023-03-13T02:55:09;94858.47;;;2.91;85.40
9225;BME280;4647;48.072;11.616;2023-03-13T02:57:44;94858.81;;;2.86;85.40
9225;BME280;4647;48.072;11.616;2023-03-13T03:00:13;94857.22;;;2.82;85.43
9225;BME280;4647;48.072;11.616;2023-03-13T03:02:42;94858.84;;;2.90;85.68
9225;BME280;4647;48.072;11.616;2023-03-13T03:05:11;94864.25;;;2.97;85.53
9225;BME280;4647;48.072;11.616;2023-03-13T03:07:40;94864.63;;;2.99;85.61
9225;BME280;4647;48.072;11.616;2023-03-13T03:10:10;94861.25;;;3.05;85.74
9225;BME280;4647;48.072;11.616;2023-03-13T03:12:38;94851.31;;;3.06;85.54
9225;BME280;4647;48.072;11.616;2023-03-13T03:15:10;94859.84;;;3.26;85.27
9225;BME280;4647;48.072;11.616;2023-03-13T03:17:39;94860.69;;;3.33;84.57
9225;BME280;4647;48.072;11.616;2023-03-13T03:20:08;94852.19;;;3.24;85.00
9225;BME280;4647;48.072;11.616;2023-03-13T03:22:37;94844.13;;;3.14;85.09
9225;BME280;4647;48.072;11.616;2023-03-13T03:25:06;94853.03;;;3.32;84.80
9225;BME280;4647;48.072;11.616;2023-03-13T03:27:35;94853.31;;;3.20;84.44
9225;BME280;4647;48.072;11.616;2023-03-13T03:30:05;94852.31;;;3.42;84.63
9225;BME280;4647;48.072;11.616;2023-03-13T03:32:36;94852.72;;;3.44;84.24
9225;BME280;4647;48.072;11.616;2023-03-13T03:35:06;94849.69;;;3.53;84.04
9225;BME280;4647;48.072;11.616;2023-03-13T03:37:35;94853.59;;;3.62;83.47
9225;BME280;4647;48.072;11.616;2023-03-13T03:40:04;94850.16;;;3.69;82.91
9225;BME280;4647;48.072;11.616;2023-03-13T03:42:34;94847.84;;;3.64;83.12
9225;BME280;4647;48.072;11.616;2023-03-13T03:45:03;94852.41;;;3.56;83.22
9225;BME280;4647;48.072;11.616;2023-03-13T03:47:31;94834.31;;;3.39;82.98
9225;BME280;4647;48.072;11.616;2023-03-13T03:50:03;94845.91;;;3.57;82.89
9225;BME280;4647;48.072;11.616;2023-03-13T03:52:32;94834.81;;;3.59;82.35
9225;BME280;4647;48.072;11.616;2023-03-13T03:55:00;94834.47;;;3.67;82.17
9225;BME280;4647;48.072;11.616;2023-03-13T03:57:29;94829.50;;;3.66;81.44
9225;BME280;4647;48.072;11.616;2023-03-13T03:59:58;94840.25;;;3.77;80.93
9225;BME280;4647;48.072;11.616;2023-03-13T04:02:26;94836.06;;;3.83;80.33
9225;BME280;4647;48.072;11.616;2023-03-13T04:04:54;94833.38;;;3.79;80.30
9225;BME280;4647;48.072;11.616;2023-03-13T04:07:25;94828.06;;;3.86;79.63
9225;BME280;4647;48.072;11.616;2023-03-13T04:09:54;94829.56;;;3.80;79.84
9225;BME280;4647;48.072;11.616;2023-03-13T04:12:23;94831.50;;;3.83;79.70
9225;BME280;4647;48.072;11.616;2023-03-13T04:14:51;94821.56;;;3.91;78.80
9225;BME280;4647;48.072;11.616;2023-03-13T04:17:20;94816.94;;;3.81;79.55
9225;BME280;4647;48.072;11.616;2023-03-13T04:19:48;94816.91;;;3.77;79.60
9225;BME280;4647;48.072;11.616;2023-03-13T04:22:17;94792.69;;;3.52;79.91
9225;BME280;4647;48.072;11.616;2023-03-13T04:24:48;94800.81;;;3.74;79.55
9225;BME280;4647;48.072;11.616;2023-03-13T04:27:16;94797.75;;;3.72;79.66
9225;BME280;4647;48.072;11.616;2023-03-13T04:29:45;94787.47;;;3.84;79.21
9225;BME280;4647;48.072;11.616;2023-03-13T04:32:14;94791.69;;;3.96;78.93
9225;BME280;4647;48.072;11.616;2023-03-13T04:34:42;94774.09;;;3.95;78.84
9225;BME280;4647;48.072;11.616;2023-03-13T04:37:10;94773.69;;;3.93;78.75
9225;BME280;4647;48.072;11.616;2023-03-13T04:39:39;94779.06;;;3.96;78.89
9225;BME280;4647;48.072;11.616;2023-03-13T04:42:11;94758.00;;;3.81;79.46
9225;BME280;4647;48.072;11.616;2023-03-13T04:44:39;94767.19;;;3.87;79.47
9225;BME280;4647;48.072;11.616;2023-03-13T04:47:08;94754.19;;;3.92;79.27
9225;BME280;4647;48.072;11.616;2023-03-13T04:49:36;94764.94;;;4.03;78.84
9225;BME280;4647;48.072;11.616;2023-03-13T04:52:05;94768.03;;;4.26;78.09
9225;BME280;4647;48.072;11.616;2023-03-13T04:54:34;94763.03;;;4.25;77.88
9225;BME280;4647;48.072;11.616;2023-03-13T04:57:03;94745.41;;;4.20;77.98
9225;BME280;4647;48.072;11.616;2023-03-13T04:59:34;94749.28;;;4.30;77.64
9225;BME280;4647;48.072;11.616;2023-03-13T05:02:02;94740.47;;;4.26;77.63
9225;BME280;4647;48.072;11.616;2023-03-13T05:04:30;94735.09;;;4.40;77.07
9225;BME280;4647;48.072;11.616;2023-03-13T05:06:59;94737.38;;;4.42;77.22
9225;BME280;4647;48.072;11.616;2023-03-13T05:09:27;94736.63;;;4.55;76.22
9225;BME280;4647;48.072;11.616;2023-03-13T05:11:56;94729.34;;;4.59;76.37
9225;BME280;4647;48.072;11.616;2023-03-13T05:14:24;94731.25;;;4.62;76.03
9225;BME280;4647;48.072;11.616;2023-03-13T05:16:55;94728.97;;;4.61;76.14
9225;BME280;4647;48.072;11.616;2023-03-13T05:19:24;94735.09;;;4.69;76.11
9225;BME280;4647;48.072;11.616;2023-03-13T05:21:52;94733.56;;;4.78;75.69
9225;BME280;4647;48.072;11.616;2023-03-13T05:24:21;94722.78;;;5.00;74.97
9225;BME280;4647;48.072;11.616;2023-03-13T05:26:49;94711.22;;;5.17;74.33
9225;BME280;4647;48.072;11.616;2023-03-13T05:29:18;94716.66;;;4.92;75.00
9225;BME280;4647;48.072;11.616;2023-03-13T05:31:47;94705.88;;;5.06;74.62
9225;BME280;4647;48.072;11.616;2023-03-13T05:34:18;94692.84;;;5.08;74.04
9225;BME280;4647;48.072;11.616;2023-03-13T05:36:47;94705.47;;;5.15;74.10
9225;BME280;4647;48.072;11.616;2023-03-13T05:39:15;94701.63;;;5.19;73.63
9225;BME280;4647;48.072;11.616;2023-03-13T05:41:43;94701.56;;;5.37;73.25
9225;BME280;4647;48.072;11.616;2023-03-13T05:44:12;94686.19;;;5.45;72.80
9225;BME280;4647;48.072;11.616;2023-03-13T05:46:40;94690.31;;;5.64;72.03
9225;BME280;4647;48.072;11.616;2023-03-13T05:49:09;94689.88;;;5.76;71.54
9225;BME280;4647;48.072;11.616;2023-03-13T05:51:40;94684.53;;;5.72;71.20
9225;BME280;4647;48.072;11.616;2023-03-13T05:54:08;94688.34;;;5.75;71.41
9225;BME280;4647;48.072;11.616;2023-03-13T05:56:36;94692.47;;;5.97;70.92
9225;BME280;4647;48.072;11.616;2023-03-13T05:59:05;94684.16;;;5.67;71.96
9225;BME280;4647;48.072;11.616;2023-03-13T06:01:33;94700.59;;;5.79;71.54
9225;BME280;4647;48.072;11.616;2023-03-13T06:04:02;94703.47;;;6.13;70.44
9225;BME280;4647;48.072;11.616;2023-03-13T06:06:30;94681.91;;;6.24;69.86
9225;BME280;4647;48.072;11.616;2023-03-13T06:09:01;94679.88;;;6.35;69.69
9225;BME280;4647;48.072;11.616;2023-03-13T06:11:30;94674.44;;;5.87;70.78
9225;BME280;4647;48.072;11.616;2023-03-13T06:13:58;94667.06;;;6.05;70.44
9225;BME280;4647;48.072;11.616;2023-03-13T06:16:27;94663.94;;;6.10;70.06
9225;BME280;4647;48.072;11.616;2023-03-13T06:18:56;94657.81;;;6.06;70.29
9225;BME280;4647;48.072;11.616;2023-03-13T06:21:25;94649.66;;;6.21;70.15
9225;BME280;4647;48.072;11.616;2023-03-13T06:23:53;94648.88;;;6.24;69.54
9225;BME280;4647;48.072;11.616;2023-03-13T06:26:24;94654.56;;;6.29;69.45
9225;BME280;4647;48.072;11.616;2023-03-13T06:28:53;94639.97;;;6.30;69.18
9225;BME280;4647;48.072;11.616;2023-03-13T06:31:21;94648.25;;;6.50;68.90
9225;BME280;4647;48.072;11.616;2023-03-13T06:33:52;94650.44;;;6.62;68.48
9225;BME280;4647;48.072;11.616;2023-03-13T06:36:20;94648.91;;;6.99;67.62
9225;BME280;4647;48.072;11.616;2023-03-13T06:38:49;94655.84;;;7.34;66.63
9225;BME280;4647;48.072;11.616;2023-03-13T06:41:18;94660.69;;;7.46;66.30
9225;BME280;4647;48.072;11.616;2023-03-13T06:43:49;94654.78;;;7.55;65.79
9225;BME280;4647;48.072;11.616;2023-03-13T06:46:19;94653.19;;;7.61;65.54
9225;BME280;4647;48.072;11.616;2023-03-13T06:48:48;94644.66;;;7.66;65.23
9225;BME280;4647;48.072;11.616;2023-03-13T06:51:19;94642.75;;;7.63;65.23
9225;BME280;4647;48.072;11.616;2023-03-13T06:53:48;94651.19;;;7.65;65.23
9225;BME280;4647;48.072;11.616;2023-03-13T06:56:17;94649.53;;;7.75;65.28
9225;BME280;4647;48.072;11.616;2023-03-13T06:58:49;94636.81;;;7.75;64.90
9225;BME280;4647;48.072;11.616;2023-03-13T07:01:17;94643.13;;;7.65;65.44
9225;BME280;4647;48.072;11.616;2023-03-13T07:03:46;94649.69;;;7.64;65.44
9225;BME280;4647;48.072;11.616;2023-03-13T07:06:15;94648.91;;;7.33;66.81
9225;BME280;4647;48.072;11.616;2023-03-13T07:08:43;94659.47;;;7.51;66.40
9225;BME280;4647;48.072;11.616;2023-03-13T07:11:13;94653.84;;;7.68;65.64
9225;BME280;4647;48.072;11.616;2023-03-13T07:13:42;94656.31;;;7.86;65.39
9225;BME280;4647;48.072;11.616;2023-03-13T07:16:13;94646.75;;;7.82;65.01
9225;BME280;4647;48.072;11.616;2023-03-13T07:18:42;94641.50;;;7.71;65.33
9225;BME280;4647;48.072;11.616;2023-03-13T07:21:11;94632.94;;;7.76;64.96
9225;BME280;4647;48.072;11.616;2023-03-13T07:23:40;94657.41;;;8.16;64.07
9225;BME280;4647;48.072;11.616;2023-03-13T07:26:10;94654.91;;;8.28;63.55
9225;BME280;4647;48.072;11.616;2023-03-13T07:28:40;94658.94;;;8.44;63.19
9225;BME280;4647;48.072;11.616;2023-03-13T07:31:14;94652.06;;;8.63;62.27
9225;BME280;4647;48.072;11.616;2023-03-13T07:33:43;94648.72;;;8.05;64.17
9225;BME280;4647;48.072;11.616;2023-03-13T07:36:14;94641.00;;;8.30;63.21
9225;BME280;4647;48.072;11.616;2023-03-13T07:38:46;94637.50;;;8.56;62.10
9225;BME280;4647;48.072;11.616;2023-03-13T07:41:14;94642.16;;;8.99;60.93
9225;BME280;4647;48.072;11.616;2023-03-13T07:43:43;94641.63;;;9.28;59.38
9225;BME280;4647;48.072;11.616;2023-03-13T07:46:16;94638.44;;;8.70;60.96
9225;BME280;4647;48.072;11.616;2023-03-13T07:48:46;94631.94;;;8.44;61.57
9225;BME280;4647;48.072;11.616;2023-03-13T07:51:16;94628.06;;;8.88;60.30
9225;BME280;4647;48.072;11.616;2023-03-13T07:53:46;94634.84;;;8.96;59.50
9225;BME280;4647;48.072;11.616;2023-03-13T07:56:16;94626.00;;;8.96;59.39
9225;BME280;4647;48.072;11.616;2023-03-13T07:58:45;94625.72;;;9.10;58.81
9225;BME280;4647;48.072;11.616;2023-03-13T08:01:17;94637.16;;;9.37;58.04
9225;BME280;4647;48.072;11.616;2023-03-13T08:03:46;94648.44;;;9.88;57.28
9225;BME280;4647;48.072;11.616;2023-03-13T08:06:18;94649.56;;;10.27;55.50
9225;BME280;4647;48.072;11.616;2023-03-13T08:08:48;94657.25;;;10.44;54.80
9225;BME280;4647;48.072;11.616;2023-03-13T08:11:18;94630.16;;;10.61;53.69
9225;BME280;4647;48.072;11.616;2023-03-13T08:13:46;94639.97;;;10.71;54.86
9225;BME280;4647;48.072;11.616;2023-03-13T08:16:20;94649.63;;;10.72;55.68
9225;BME280;4647;48.072;11.616;2023-03-13T08:18:50;94644.41;;;11.23;53.77
9225;BME280;4647;48.072;11.616;2023-03-13T08:21:21;94633.34;;;11.72;52.85
9225;BME280;4647;48.072;11.616;2023-03-13T08:23:52;94610.63;;;10.82;55.19
9225;BME280;4647;48.072;11.616;2023-03-13T08:26:23;94621.16;;;10.64;54.48
9225;BME280;4647;48.072;11.616;2023-03-13T08:28:53;94611.78;;;10.97;55.14
9225;BME280;4647;48.072;11.616;2023-03-13T08:31:27;94610.28;;;11.38;53.98
9225;BME280;4647;48.072;11.616;2023-03-13T08:33:56;94619.94;;;11.39;53.62
9225;BME280;4647;48.072;11.616;2023-03-13T08:36:26;94631.78;;;11.87;52.11
9225;BME280;4647;48.072;11.616;2023-03-13T08:38:58;94640.03;;;11.96;52.04
9225;BME280;4647;48.072;11.616;2023-03-13T08:41:28;94640.38;;;12.11;51.64
9225;BME280;4647;48.072;11.616;2023-03-13T08:43:58;94637.97;;;12.00;51.86
9225;BME280;4647;48.072;11.616;2023-03-13T08:46:31;94645.13;;;11.94;51.67
9225;BME280;4647;48.072;11.616;2023-03-13T08:49:01;94652.50;;;12.06;51.06
9225;BME280;4647;48.072;11.616;2023-03-13T08:51:30;94642.09;;;12.17;51.26
9225;BME280;4647;48.072;11.616;2023-03-13T08:54:00;94643.97;;;12.68;49.80
9225;BME280;4647;48.072;11.616;2023-03-13T08:56:29;94643.56;;;13.04;49.51
9225;BME280;4647;48.072;11.616;2023-03-13T08:59:00;94644.84;;;13.12;48.96
9225;BME280;4647;48.072;11.616;2023-03-13T09:01:33;94643.09;;;13.40;47.39
9225;BME280;4647;48.072;11.616;2023-03-13T09:04:03;94638.09;;;13.38;47.81
9225;BME280;4647;48.072;11.616;2023-03-13T09:06:32;94636.88;;;13.61;48.11
9225;BME280;4647;48.072;11.616;2023-03-13T09:09:02;94635.63;;;13.31;47.08
9225;BME280;4647;48.072;11.616;2023-03-13T09:11:32;94630.00;;;13.47;47.12
9225;BME280;4647;48.072;11.616;2023-03-13T09:14:01;94621.44;;;13.58;46.26
9225;BME280;4647;48.072;11.616;2023-03-13T09:16:33;94618.06;;;14.07;45.01
9225;BME280;4647;48.072;11.616;2023-03-13T09:19:01;94614.97;;;14.27;44.26
9225;BME280;4647;48.072;11.616;2023-03-13T09:21:32;94619.66;;;14.35;43.20
9225;BME280;4647;48.072;11.616;2023-03-13T09:24:01;94624.53;;;14.00;43.93
9225;BME280;4647;48.072;11.616;2023-03-13T09:26:30;94634.59;;;13.81;44.34
9225;BME280;4647;48.072;11.616;2023-03-13T09:28:58;94628.72;;;13.92;44.30
9225;BME280;4647;48.072;11.616;2023-03-13T09:31:28;94625.09;;;13.95;43.97
9225;BME280;4647;48.072;11.616;2023-03-13T09:34:00;94609.44;;;14.08;43.46
9225;BME280;4647;48.072;11.616;2023-03-13T09:36:29;94608.69;;;12.89;45.49
9225;BME280;4647;48.072;11.616;2023-03-13T09:38:58;94608.66;;;13.24;45.42
9225;BME280;4647;48.072;11.616;2023-03-13T09:41:33;94598.22;;;14.06;43.29
9225;BME280;4647;48.072;11.616;2023-03-13T09:44:08;94571.06;;;14.34;42.21
9225;BME280;4647;48.072;11.616;2023-03-13T09:46:43;94599.81;;;14.93;41.50
9225;BME280;4647;48.072;11.616;2023-03-13T09:49:25;94594.31;;;14.17;43.45
9225;BME280;4647;48.072;11.616;2023-03-13T09:52:03;94590.00;;;13.88;43.37
9225;BME280;4647;48.072;11.616;2023-03-13T09:54:40;94592.41;;;14.26;43.83
9225;BME280;4647;48.072;11.616;2023-03-13T09:57:15;94594.47;;;14.53;41.83
9225;BME280;4647;48.072;11.616;2023-03-13T09:59:50;94593.72;;;14.89;40.76
9225;BME280;4647;48.072;11.616;2023-03-13T10:02:28;94577.38;;;15.17;39.46
9225;BME280;4647;48.072;11.616;2023-03-13T10:05:05;94582.91;;;15.68;37.95
9225;BME280;4647;48.072;11.616;2023-03-13T10:07:36;94575.09;;;15.94;38.49
9225;BME280;4647;48.072;11.616;2023-03-13T10:10:10;94578.06;;;15.72;38.40
9225;BME280;4647;48.072;11.616;2023-03-13T10:12:43;94570.47;;;16.09;37.78
9225;BME280;4647;48.072;11.616;2023-03-13T10:15:32;94574.88;;;16.64;36.93
9225;BME280;4647;48.072;11.616;2023-03-13T10:18:13;94565.41;;;17.12;36.17
9225;BME280;4647;48.072;11.616;2023-03-13T10:20:48;94564.03;;;17.46;36.59
9225;BME280;4647;48.072;11.616;2023-03-13T10:23:21;94558.16;;;17.24;36.06
9225;BME280;4647;48.072;11.616;2023-03-13T10:25:52;94566.56;;;17.21;36.65
9225;BME280;4647;48.072;11.616;2023-03-13T10:28:21;94548.25;;;17.27;36.21
9225;BME280;4647;48.072;11.616;2023-03-13T10:30:53;94558.72;;;17.13;36.58
9225;BME280;4647;48.072;11.616;2023-03-13T10:33:25;94561.50;;;17.28;36.16
9225;BME280;4647;48.072;11.616;2023-03-13T10:36:06;94569.31;;;17.50;36.12
9225;BME280;4647;48.072;11.616;2023-03-13T10:38:46;94567.25;;;17.45;35.65
9225;BME280;4647;48.072;11.616;2023-03-13T10:41:22;94544.03;;;17.70;35.90
9225;BME280;4647;48.072;11.616;2023-03-13T10:43:53;94545.69;;;17.97;35.72
9225;BME280;4647;48.072;11.616;2023-03-13T10:46:28;94542.44;;;18.48;35.01
9225;BME280;4647;48.072;11.616;2023-03-13T10:49:00;94539.88;;;18.80;34.73
9225;BME280;4647;48.072;11.616;2023-03-13T10:51:37;94543.44;;;18.86;34.02
9225;BME280;4647;48.072;11.616;2023-03-13T10:54:13;94527.59;;;18.75;33.64
9225;BME280;4647;48.072;11.616;2023-03-13T10:56:43;94532.84;;;18.99;34.07
9225;BME280;4647;48.072;11.616;2023-03-13T10:59:21;94528.66;;;19.04;33.57
9225;BME280;4647;48.072;11.616;2023-03-13T11:01:51;94517.63;;;19.24;33.92
9225;BME280;4647;48.072;11.616;2023-03-13T11:04:29;94520.59;;;18.94;33.69
9225;BME280;4647;48.072;11.616;2023-03-13T11:07:04;94518.13;;;18.76;33.45
9225;BME280;4647;48.072;11.616;2023-03-13T11:09:33;94520.38;;;19.24;34.21
9225;BME280;4647;48.072;11.616;2023-03-13T11:12:04;94516.72;;;19.32;33.50
9225;BME280;4647;48.072;11.616;2023-03-13T11:14:34;94505.34;;;19.71;32.95
9225;BME280;4647;48.072;11.616;2023-03-13T11:17:08;94507.00;;;19.95;32.56
9225;BME280;4647;48.072;11.616;2023-03-13T11:19:50;94493.66;;;19.82;32.89
9225;BME280;4647;48.072;11.616;2023-03-13T11:25:30;94498.00;;;18.85;33.49
9225;BME280;4647;48.072;11.616;2023-03-13T11:28:26;94498.13;;;18.55;34.46
9225;BME280;4647;48.072;11.616;2023-03-13T11:31:06;94498.13;;;18.55;34.46
9225;BME280;4647;48.072;11.616;2023-03-13T11:33:46;94492.69;;;18.20;35.24
9225;BME280;4647;48.072;11.616;2023-03-13T11:36:22;94497.25;;;17.59;36.97
9225;BME280;4647;48.072;11.616;2023-03-13T11:38:56;94485.84;;;18.10;36.23
9225;BME280;4647;48.072;11.616;2023-03-13T11:41:44;94478.97;;;18.20;36.34
9225;BME280;4647;48.072;11.616;2023-03-13T11:44:28;94469.63;;;18.27;36.08
9225;BME280;4647;48.072;11.616;2023-03-13T11:47:22;94467.34;;;18.66;36.04
9225;BME280;4647;48.072;11.616;2023-03-13T11:50:04;94459.28;;;19.03;35.37
9225;BME280;4647;48.072;11.616;2023-03-13T11:52:57;94458.81;;;19.10;34.84
9225;BME280;4647;48.072;11.616;2023-03-13T11:55:42;94454.50;;;18.17;36.70
9225;BME280;4647;48.072;11.616;2023-03-13T11:58:37;94448.50;;;18.74;36.67
9225;BME280;4647;48.072;11.616;2023-03-13T12:01:10;94440.63;;;18.87;36.72
9225;BME280;4647;48.072;11.616;2023-03-13T12:03:43;94434.38;;;19.12;36.14
9225;BME280;4647;48.072;11.616;2023-03-13T12:06:24;94414.28;;;19.26;37.27
9225;BME280;4647;48.072;11.616;2023-03-13T12:08:57;94417.31;;;19.28;37.94
9225;BME280;4647;48.072;11.616;2023-03-13T12:11:31;94417.34;;;19.34;37.55
9225;BME280;4647;48.072;11.616;2023-03-13T12:14:05;94418.13;;;19.09;38.82
9225;BME280;4647;48.072;11.616;2023-03-13T12:16:41;94416.19;;;19.15;39.63
9225;BME280;4647;48.072;11.616;2023-03-13T12:19:14;94404.94;;;18.87;40.48
9225;BME280;4647;48.072;11.616;2023-03-13T12:21:47;94415.63;;;18.79;41.02
9225;BME280;4647;48.072;11.616;2023-03-13T12:24:24;94399.50;;;18.66;40.69
9225;BME280;4647;48.072;11.616;2023-03-13T12:26:56;94412.56;;;18.72;41.30
9225;BME280;4647;48.072;11.616;2023-03-13T12:29:38;94406.38;;;18.56;41.23
9225;BME280;4647;48.072;11.616;2023-03-13T12:32:15;94401.53;;;18.25;41.76
9225;BME280;4647;48.072;11.616;2023-03-13T12:34:55;94392.75;;;17.81;42.15
9225;BME280;4647;48.072;11.616;2023-03-13T12:37:32;94409.19;;;17.81;42.56
9225;BME280;4647;48.072;11.616;2023-03-13T12:40:12;94405.03;;;17.85;42.11
9225;BME280;4647;48.072;11.616;2023-03-13T12:42:48;94388.63;;;17.70;42.32
9225;BME280;4647;48.072;11.616;2023-03-13T12:45:23;94376.81;;;17.99;41.75
9225;BME280;4647;48.072;11.616;2023-03-13T12:51:05;94375.03;;;17.61;42.61
9225;BME280;4647;48.072;11.616;2023-03-13T12:53:49;94329.69;;;17.75;42.18
9225;BME280;4647;48.072;11.616;2023-03-13T12:56:47;94360.97;;;18.09;42.13
9225;BME280;4647;48.072;11.616;2023-03-13T12:59:24;94354.31;;;17.95;42.55
9225;BME280;4647;48.072;11.616;2023-03-13T13:01:58;94339.59;;;18.13;42.12
9225;BME280;4647;48.072;11.616;2023-03-13T13:04:30;94340.94;;;18.23;40.84
9225;BME280;4647;48.072;11.616;2023-03-13T13:07:01;94337.09;;;18.15;42.03
9225;BME280;4647;48.072;11.616;2023-03-13T13:09:32;94339.19;;;18.00;42.04
9225;BME280;4647;48.072;11.616;2023-03-13T13:12:17;94330.09;;;18.34;41.24
9225;BME280;4647;48.072;11.616;2023-03-13T13:15:09;94327.69;;;18.68;41.12
9225;BME280;4647;48.072;11.616;2023-03-13T13:17:48;94332.50;;;18.73;41.01
9225;BME280;4647;48.072;11.616;2023-03-13T13:20:35;94324.13;;;18.88;40.56
9225;BME280;4647;48.072;11.616;2023-03-13T13:23:32;94315.22;;;18.98;40.47
9225;BME280;4647;48.072;11.616;2023-03-13T13:32:46;94321.66;;;18.64;40.62
9225;BME280;4647;48.072;11.616;2023-03-13T13:35:24;94313.41;;;18.90;40.64
9225;BME280;4647;48.072;11.616;2023-03-13T13:41:00;94303.31;;;18.76;40.31
9225;BME280;4647;48.072;11.616;2023-03-13T13:43:31;94305.69;;;18.36;41.42
9225;BME280;4647;48.072;11.616;2023-03-13T13:46:02;94309.63;;;18.87;40.90
9225;BME280;4647;48.072;11.616;2023-03-13T13:48:38;94278.53;;;18.96;40.29
9225;BME280;4647;48.072;11.616;2023-03-13T13:51:24;94292.22;;;19.33;40.07
9225;BME280;4647;48.072;11.616;2023-03-13T13:53:55;94289.88;;;19.15;40.15
9225;BME280;4647;48.072;11.616;2023-03-13T13:56:36;94289.91;;;18.83;40.32
9225;BME280;4647;48.072;11.616;2023-03-13T13:59:33;94270.06;;;18.99;40.61